Terminal Aerodrome Forecast
Issued by NWS

Current Version | Previous Version | Text Only | Print | Product List | Glossary On
Versions: 1 2 3 4 5 6 7 8 9 10 11 12 13 14 15 16 17 18 19 20 21 22 23 24
000
FTUS43 KGRR 301740
TAFAZO
TAF
KAZO 301740Z 3018/0118 05009G15KT P6SM OVC012
      TEMPO 3018/3021 4SM -RA BR OVC008
     FM010000 07010KT 4SM -RA BR OVC007
      TEMPO 0100/0104 1SM +SHRA BR OVC004
     FM010500 07004KT 4SM BR OVC003
     FM011000 10003KT 2SM BR OVC003
     FM011500 11004KT P6SM OVC012=

USA.gov is the U.S. government's official web portal to all federal, state and local government web resources and services.